Time;durP1;ratioP1;P1;durP2;ratioP2;P2;SDS_P1;SDS_P2;PMS_P1;PMS_P2;Temp;Humidity;BMP_temperature;BMP_pressure;BME280_temperature;BME280_humidity;BME280_pressure;Samples;Min_cycle;Max_cycle;Signal;HPM_P1;HPM_P2
2021/11/12 00:12:57;;;;;;;74.47;46.33;;;10.80;99.90;;;;;;5058628;28;20044;-72
2021/11/12 00:16:03;;;;;;;37.40;19.30;;;10.80;99.90;;;;;;5061119;28;20060;-72
2021/11/12 00:19:07;;;;;;;31.70;18.20;;;10.90;99.90;;;;;;5070196;28;20040;-72
2021/11/12 00:22:12;;;;;;;40.40;20.13;;;11.00;99.90;;;;;;5059481;28;20051;-72
2021/11/12 00:25:17;;;;;;;31.10;18.60;;;11.00;99.90;;;;;;5056008;28;20060;-72
2021/11/12 00:28:25;;;;;;;27.20;16.27;;;11.00;99.90;;;;;;5063537;28;20048;-72
2021/11/12 00:34:49;;;;;;;59.13;38.10;;;10.90;99.90;;;;;;5060438;28;20047;-72
2021/11/12 00:38:06;;;;;;;30.25;16.38;;;10.90;99.90;;;;;;5062835;28;20047;-72
2021/11/12 00:41:17;;;;;;;37.83;24.35;;;10.90;99.90;;;;;;5058959;28;20040;-72
2021/11/12 00:45:24;;;;;;;35.53;18.27;;;10.80;99.90;;;;;;5059438;28;20055;-72
2021/11/12 00:51:13;;;;;;;27.15;15.43;;;10.70;99.90;;;;;;5061572;28;20052;-72
2021/11/12 00:54:19;;;;;;;32.22;15.98;;;10.70;99.90;;;;;;5054469;28;20048;-72
2021/11/12 00:57:24;;;;;;;29.38;14.82;;;10.60;99.90;;;;;;5063339;28;20055;-72
2021/11/12 01:00:28;;;;;;;30.73;16.17;;;10.60;99.90;;;;;;5058789;28;20047;-72
2021/11/12 01:03:32;;;;;;;36.45;17.67;;;10.60;99.90;;;;;;5060793;28;20044;-72
2021/11/12 01:06:39;;;;;;;37.85;19.17;;;10.50;99.90;;;;;;5058858;28;20056;-72
2021/11/12 01:09:43;;;;;;;32.13;17.17;;;10.50;99.90;;;;;;5058745;28;20060;-72
2021/11/12 01:12:47;;;;;;;29.33;15.50;;;10.60;99.90;;;;;;5067498;28;20052;-72
2021/11/12 01:15:52;;;;;;;28.92;14.93;;;10.60;99.90;;;;;;5055447;28;20048;-72
2021/11/12 01:18:56;;;;;;;29.38;15.98;;;10.70;99.90;;;;;;5067021;28;20474;-72
2021/11/12 01:22:01;;;;;;;36.38;18.58;;;10.70;99.90;;;;;;5065444;28;20043;-72
2021/11/12 01:25:12;;;;;;;32.10;17.90;;;10.70;99.90;;;;;;5061405;28;20384;-72
2021/11/12 01:28:17;;;;;;;34.17;18.42;;;10.70;99.90;;;;;;5062317;28;20407;-72
2021/11/12 01:31:27;;;;;;;33.97;18.67;;;10.60;99.90;;;;;;5055455;28;20055;-72
2021/11/12 01:34:33;;;;;;;34.15;18.30;;;10.60;99.90;;;;;;5065087;28;20039;-72
2021/11/12 01:37:37;;;;;;;41.00;20.17;;;10.60;99.90;;;;;;5058674;28;20044;-72
2021/11/12 01:40:42;;;;;;;38.20;20.98;;;10.60;99.90;;;;;;5066715;28;20055;-72
2021/11/12 01:43:49;;;;;;;40.67;20.40;;;10.60;99.90;;;;;;5058885;28;20044;-72
2021/11/12 01:50:08;;;;;;;35.58;19.23;;;10.60;99.90;;;;;;5064062;28;20052;-72
2021/11/12 01:53:24;;;;;;;34.50;20.63;;;10.60;99.90;;;;;;5063836;28;20036;-72
2021/11/12 01:56:57;;;;;;;36.80;19.92;;;10.60;99.90;;;;;;5057610;28;20043;-72
2021/11/12 02:00:09;;;;;;;61.95;30.00;;;10.60;99.90;;;;;;5059162;28;20039;-72
2021/11/12 02:03:13;;;;;;;61.38;28.80;;;10.60;99.90;;;;;;5057885;28;20052;-72
2021/11/12 02:06:20;;;;;;;62.17;30.02;;;10.50;99.90;;;;;;5055248;28;20044;-72
2021/11/12 02:09:25;;;;;;;52.80;26.40;;;10.50;99.90;;;;;;5063769;28;20055;-72
2021/11/12 02:12:33;;;;;;;51.40;28.23;;;10.50;99.90;;;;;;5055283;28;20068;-72
2021/11/12 02:15:39;;;;;;;35.28;19.92;;;10.50;99.90;;;;;;5055673;28;20048;-72
2021/11/12 02:18:45;;;;;;;34.55;19.20;;;10.50;99.90;;;;;;5059429;28;20055;-72
2021/11/12 02:22:12;;;;;;;31.67;17.52;;;10.50;99.90;;;;;;5057915;28;20044;-72
2021/11/12 02:25:26;;;;;;;30.15;17.05;;;10.60;99.90;;;;;;5062375;28;20044;-72
2021/11/12 02:28:30;;;;;;;33.28;16.85;;;10.60;99.90;;;;;;5063944;28;20048;-72
2021/11/12 02:31:34;;;;;;;34.58;16.13;;;10.70;99.90;;;;;;5065694;28;20494;-72
2021/11/12 02:34:39;;;;;;;30.50;16.63;;;10.70;99.90;;;;;;5061506;28;20056;-72
2021/11/12 02:37:43;;;;;;;27.08;14.52;;;10.90;99.90;;;;;;5061575;28;20063;-72
2021/11/12 02:40:48;;;;;;;30.10;15.13;;;11.00;99.90;;;;;;5068782;28;20047;-72
2021/11/12 02:43:53;;;;;;;27.48;16.20;;;11.10;99.90;;;;;;5056664;28;20052;-72
2021/11/12 02:46:58;;;;;;;26.40;14.85;;;11.00;99.90;;;;;;5061738;28;20064;-72
2021/11/12 02:50:02;;;;;;;27.10;14.93;;;11.10;99.90;;;;;;5062032;28;20056;-72
2021/11/12 02:53:17;;;;;;;28.05;15.82;;;11.10;99.90;;;;;;5061354;28;20048;-72
2021/11/12 02:59:29;;;;;;;26.02;15.50;;;11.30;99.90;;;;;;5066389;28;20039;-72
2021/11/12 03:02:34;;;;;;;30.83;15.65;;;11.30;99.90;;;;;;5061280;28;20055;-72
2021/11/12 03:05:38;;;;;;;28.50;16.50;;;11.30;99.90;;;;;;5060284;28;20048;-72
2021/11/12 03:08:42;;;;;;;27.90;15.90;;;11.30;99.90;;;;;;5054395;28;20044;-72
2021/11/12 03:11:46;;;;;;;29.77;15.07;;;11.30;99.90;;;;;;5061653;28;20056;-72
2021/11/12 03:14:52;;;;;;;26.08;14.98;;;11.40;99.90;;;;;;5062855;28;20060;-72
2021/11/12 03:17:57;;;;;;;32.28;17.10;;;11.40;99.90;;;;;;5068334;28;20047;-72
2021/11/12 03:21:02;;;;;;;26.67;16.27;;;11.50;99.90;;;;;;5063114;28;20064;-72
2021/11/12 03:24:12;;;;;;;29.00;15.82;;;11.40;99.90;;;;;;5063789;28;20414;-72
2021/11/12 03:27:28;;;;;;;31.30;15.15;;;11.50;99.90;;;;;;5058177;28;20044;-72
2021/11/12 04:00:38;;;;;;;24.55;14.43;;;11.80;99.90;;;;;;5063785;28;20423;-72
2021/11/12 05:43:50;;;;;;;26.50;15.07;;;10.20;99.90;;;;;;5059315;28;20068;-72
2021/11/12 05:56:26;;;;;;;38.13;19.13;;;9.40;99.90;;;;;;5063762;28;20048;-72
2021/11/12 05:59:30;;;;;;;35.05;18.25;;;9.30;99.90;;;;;;5053433;28;20048;-72
2021/11/12 06:02:34;;;;;;;38.58;19.88;;;9.30;99.90;;;;;;5060054;28;20383;-72
2021/11/12 06:05:39;;;;;;;36.63;19.20;;;9.30;99.90;;;;;;5059134;28;20399;-72
2021/11/12 06:08:43;;;;;;;34.63;18.40;;;9.30;99.90;;;;;;5058126;28;20048;-72
2021/11/12 06:11:50;;;;;;;36.00;18.38;;;9.30;99.90;;;;;;5061828;28;20048;-72
2021/11/12 06:14:54;;;;;;;33.65;17.70;;;9.30;99.90;;;;;;5068565;28;20051;-72
2021/11/12 06:17:59;;;;;;;29.48;16.83;;;9.30;99.90;;;;;;5068450;28;20497;-72
2021/11/12 06:21:03;;;;;;;37.88;19.00;;;9.30;99.90;;;;;;5063989;28;20502;-72
2021/11/12 06:24:07;;;;;;;31.73;17.05;;;9.40;99.90;;;;;;5064859;28;20039;-72
2021/11/12 06:27:11;;;;;;;29.48;17.17;;;9.50;99.90;;;;;;5064033;28;20039;-72
2021/11/12 06:30:15;;;;;;;28.92;16.67;;;9.60;99.90;;;;;;5057917;28;20048;-72
2021/11/12 06:33:19;;;;;;;33.78;17.92;;;9.70;99.90;;;;;;5054098;28;20036;-72
2021/11/12 06:36:25;;;;;;;35.75;18.23;;;9.70;99.90;;;;;;5061512;28;20048;-71
2021/11/12 06:39:29;;;;;;;38.05;20.52;;;9.80;99.90;;;;;;5061024;28;20403;-72
2021/11/12 06:42:38;;;;;;;35.90;18.95;;;9.90;99.90;;;;;;5065110;28;20047;-72
2021/11/12 06:49:22;;;;;;;;;;;10.00;99.90;;;;;;5059297;28;20379;-71
2021/11/12 06:52:29;;;;;;;40.58;20.58;;;10.10;99.90;;;;;;5067950;28;20328;-72
2021/11/12 06:55:35;;;;;;;38.95;19.02;;;10.30;99.90;;;;;;5069029;28;20051;-72
2021/11/12 06:58:41;;;;;;;35.90;18.83;;;10.60;99.90;;;;;;5070572;28;20059;-72
2021/11/12 07:01:48;;;;;;;40.92;20.70;;;11.00;99.90;;;;;;5064205;28;20043;-72
2021/11/12 07:04:53;;;;;;;30.92;17.85;;;11.50;99.90;;;;;;5061824;28;20443;-72
2021/11/12 07:08:00;;;;;;;36.28;18.58;;;11.90;99.90;;;;;;5061548;28;20036;-72
2021/11/12 07:11:07;;;;;;;35.53;16.90;;;12.40;99.90;;;;;;5068225;28;20036;-73
2021/11/12 07:14:13;;;;;;;30.88;17.75;;;12.90;99.90;;;;;;5062900;28;20698;-72
2021/11/12 07:17:21;;;;;;;32.58;18.38;;;13.20;99.90;;;;;;5061558;28;20047;-72
2021/11/12 07:20:28;;;;;;;28.75;16.50;;;12.70;99.90;;;;;;5053511;28;20047;-72
2021/11/12 07:23:34;;;;;;;25.30;15.60;;;12.90;99.90;;;;;;5058600;28;20048;-72
2021/11/12 07:26:43;;;;;;;23.27;14.73;;;12.70;99.90;;;;;;5059988;28;20044;-72
2021/11/12 07:29:49;;;;;;;26.42;15.20;;;13.10;99.90;;;;;;5066106;28;20132;-72
2021/11/12 07:32:58;;;;;;;24.08;15.10;;;13.40;99.90;;;;;;5061663;28;20510;-72
2021/11/12 07:36:09;;;;;;;29.65;15.50;;;13.50;99.90;;;;;;5065863;28;20517;-72
2021/11/12 07:44:04;;;;;;;23.52;14.48;;;13.30;99.90;;;;;;5057540;28;20067;-72
2021/11/12 07:46:22;;;;;;;24.42;15.30;;;13.30;99.90;;;;;;5060181;28;20048;-72
2021/11/12 07:49:29;;;;;;;30.23;14.38;;;13.60;99.90;;;;;;5062973;28;20431;-72
2021/11/12 07:52:38;;;;;;;27.17;13.98;;;13.80;99.90;;;;;;5060756;28;20052;-73
2021/11/12 07:55:43;;;;;;;25.63;14.00;;;14.00;99.90;;;;;;5064287;28;20040;-72
2021/11/12 07:58:49;;;;;;;27.23;14.95;;;14.20;99.90;;;;;;5050291;28;20051;-72
2021/11/12 08:01:56;;;;;;;24.67;14.73;;;14.30;99.90;;;;;;5064223;28;20510;-72
2021/11/12 08:05:14;;;;;;;27.08;14.43;;;14.60;99.90;;;;;;5060249;28;20050;-72
2021/11/12 08:08:22;;;;;;;25.02;14.48;;;14.90;99.90;;;;;;5057292;28;20052;-72
2021/11/12 08:11:44;;;;;;;21.60;13.30;;;15.50;99.90;;;;;;5068878;28;20044;-72
2021/11/12 08:18:06;;;;;;;19.67;12.23;;;16.40;99.90;;;;;;5067299;28;20570;-72
2021/11/12 08:34:25;;;;;;;41.72;17.80;;;17.30;99.90;;;;;;5063159;28;20048;-73
2021/11/12 08:40:55;;;;;;;33.85;18.15;;;16.90;99.90;;;;;;5064356;28;20395;-72
2021/11/12 08:44:05;;;;;;;27.48;13.82;;;17.10;99.90;;;;;;5060627;28;20044;-72
2021/11/12 08:47:15;;;;;;;19.65;11.43;;;17.20;99.90;;;;;;5068776;28;20699;-72
2021/11/12 08:50:22;;;;;;;16.35;10.63;;;17.00;99.90;;;;;;5060073;28;20123;-72
2021/11/12 08:53:26;;;;;;;18.00;11.57;;;17.00;99.90;;;;;;5063590;28;20047;-72
2021/11/12 08:56:30;;;;;;;18.42;12.13;;;17.00;99.90;;;;;;5055822;28;20052;-72
2021/11/12 08:59:35;;;;;;;19.45;12.13;;;17.00;99.90;;;;;;5057002;28;20057;-72
2021/11/12 09:02:39;;;;;;;22.23;12.93;;;16.90;99.90;;;;;;5061311;28;20402;-73
2021/11/12 09:05:43;;;;;;;23.48;12.65;;;16.60;99.90;;;;;;5064064;28;20059;-72
2021/11/12 09:08:47;;;;;;;21.33;11.75;;;16.50;99.90;;;;;;5063379;28;20051;-72
2021/11/12 09:11:51;;;;;;;20.58;12.80;;;16.20;99.90;;;;;;5063184;28;20430;-73
2021/11/12 09:14:57;;;;;;;19.65;12.00;;;16.10;99.90;;;;;;5061552;28;20065;-72
2021/11/12 09:18:14;;;;;;;23.92;12.25;;;16.00;99.90;;;;;;5060911;28;20581;-73
2021/11/12 09:21:22;;;;;;;18.00;11.20;;;16.60;99.90;;;;;;5062404;28;20055;-73
2021/11/12 09:24:28;;;;;;;19.48;10.70;;;16.60;99.90;;;;;;5056972;28;20040;-72
2021/11/12 09:27:34;;;;;;;18.40;11.27;;;16.90;99.90;;;;;;5060277;28;20067;-72
2021/11/12 09:30:40;;;;;;;20.83;10.57;;;16.80;99.90;;;;;;5060542;28;20502;-72
2021/11/12 09:33:47;;;;;;;17.23;10.35;;;17.50;99.90;;;;;;5060201;28;20043;-72
2021/11/12 09:36:54;;;;;;;18.45;11.73;;;18.00;99.90;;;;;;5055191;28;20040;-72
2021/11/12 09:40:00;;;;;;;23.45;10.98;;;18.30;99.90;;;;;;5065883;28;20067;-72
2021/11/12 09:43:05;;;;;;;15.95;11.07;;;19.20;99.90;;;;;;5061423;28;20494;-72
2021/11/12 09:46:12;;;;;;;16.20;8.52;;;19.50;99.90;;;;;;5064071;28;20039;-73
2021/11/12 09:49:17;;;;;;;16.00;9.82;;;19.70;99.90;;;;;;5057572;28;20414;-73
2021/11/12 09:52:23;;;;;;;18.50;9.35;;;19.30;99.90;;;;;;5063754;28;20043;-72
2021/11/12 09:55:30;;;;;;;13.65;9.52;;;20.10;99.90;;;;;;5065646;28;20044;-73
2021/11/12 09:58:37;;;;;;;15.30;8.50;;;21.20;99.90;;;;;;5060648;28;20420;-72
2021/11/12 10:01:42;;;;;;;12.30;8.98;;;21.70;99.90;;;;;;5065573;28;20051;-72
2021/11/12 10:04:48;;;;;;;15.35;9.18;;;22.50;99.90;;;;;;5061952;28;20072;-73
2021/11/12 10:07:53;;;;;;;12.75;9.32;;;22.70;99.90;;;;;;5062437;28;20036;-72
2021/11/12 10:11:05;;;;;;;17.83;8.90;;;22.70;99.90;;;;;;5058416;28;20498;-72
2021/11/12 10:14:11;;;;;;;11.07;8.27;;;22.00;99.90;;;;;;5060346;28;20044;-72
2021/11/12 10:17:20;;;;;;;11.15;8.30;;;23.20;99.90;;;;;;5061256;28;20372;-72
2021/11/12 10:20:27;;;;;;;12.82;7.45;;;23.00;99.90;;;;;;5059790;28;20044;-73
2021/11/12 10:23:37;;;;;;;12.63;7.28;;;25.00;98.30;;;;;;5059182;28;20061;-73
2021/11/12 10:26:46;;;;;;;12.02;7.05;;;28.10;96.40;;;;;;5062164;28;20047;-73
2021/11/12 10:29:58;;;;;;;12.48;7.60;;;29.60;93.10;;;;;;5063256;28;20043;-73
2021/11/12 10:33:05;;;;;;;9.00;7.13;;;29.90;91.60;;;;;;5064825;28;20047;-73
2021/11/12 10:36:12;;;;;;;8.05;6.05;;;30.40;90.90;;;;;;5062758;28;20115;-73
2021/11/12 10:39:43;;;;;;;9.55;5.90;;;32.50;86.70;;;;;;5063504;28;20043;-73
2021/11/12 10:42:54;;;;;;;10.30;5.40;;;33.50;80.90;;;;;;5065812;28;20048;-73
2021/11/12 10:46:09;;;;;;;11.30;5.07;;;34.70;78.80;;;;;;5064738;28;20503;-73
2021/11/12 10:49:34;;;;;;;12.50;5.85;;;35.20;75.30;;;;;;5059259;28;20051;-73
2021/11/12 10:52:42;;;;;;;7.32;5.47;;;35.30;73.30;;;;;;5060343;28;20063;-73
2021/11/12 10:55:55;;;;;;;6.10;5.07;;;35.10;73.90;;;;;;5057606;28;20510;-73
2021/11/12 10:59:04;;;;;;;6.72;4.95;;;35.70;72.50;;;;;;5059607;28;20036;-73
2021/11/12 11:02:09;;;;;;;9.95;5.80;;;35.60;69.40;;;;;;5061331;28;20048;-73
2021/11/12 11:05:16;;;;;;;11.35;5.82;;;30.00;74.10;;;;;;5070349;28;20044;-73
2021/11/12 11:08:25;;;;;;;9.10;6.00;;;28.50;79.10;;;;;;5059763;28;20044;-73
2021/11/12 11:11:44;;;;;;;10.20;5.90;;;30.00;79.70;;;;;;5062055;28;20040;-73
2021/11/12 11:14:48;;;;;;;11.63;5.57;;;31.10;78.40;;;;;;5065393;28;20047;-73
2021/11/12 11:18:19;;;;;;;9.50;5.38;;;31.60;77.00;;;;;;5061796;28;20035;-73
2021/11/12 11:21:25;;;;;;;9.38;6.20;;;32.40;75.90;;;;;;5059223;28;20036;-73
2021/11/12 11:24:33;;;;;;;15.50;6.90;;;29.10;75.90;;;;;;5061117;28;20035;-73
2021/11/12 11:27:38;;;;;;;9.20;6.22;;;26.90;82.20;;;;;;5056989;28;20048;-73
2021/11/12 11:30:45;;;;;;;10.13;6.32;;;26.00;84.70;;;;;;5059425;28;20036;-73
2021/11/12 11:33:53;;;;;;;8.57;6.43;;;26.70;83.90;;;;;;5064611;28;20069;-73
2021/11/12 11:37:01;;;;;;;8.63;6.13;;;27.40;82.60;;;;;;5061521;28;20051;-73
2021/11/12 11:40:11;;;;;;;10.68;7.05;;;27.40;83.20;;;;;;5058907;28;20036;-73
2021/11/12 11:43:16;;;;;;;10.13;6.70;;;24.50;86.30;;;;;;5064774;28;20031;-73
2021/11/12 11:46:31;;;;;;;10.63;6.20;;;25.30;87.30;;;;;;5064418;28;20509;-72
2021/11/12 11:49:37;;;;;;;10.23;6.30;;;29.10;83.60;;;;;;5060937;28;20056;-73
2021/11/12 11:52:41;;;;;;;7.72;5.55;;;33.20;77.80;;;;;;5059743;28;20043;-73
2021/11/12 11:55:45;;;;;;;9.35;5.45;;;34.90;74.60;;;;;;5062860;28;20040;-73
2021/11/12 11:59:21;;;;;;;10.48;6.35;;;33.40;74.90;;;;;;5066021;28;20036;-73
2021/11/12 12:02:25;;;;;;;17.58;6.20;;;31.70;77.40;;;;;;5062317;28;20032;-73
2021/11/12 12:06:10;;;;;;;9.60;5.93;;;30.60;79.20;;;;;;5061083;28;20051;-73
2021/11/12 12:09:14;;;;;;;10.75;6.18;;;30.50;78.30;;;;;;5063528;28;20498;-73
2021/11/12 12:12:31;;;;;;;8.75;5.85;;;30.60;77.00;;;;;;5065776;28;20059;-73
2021/11/12 12:15:37;;;;;;;12.15;5.85;;;31.40;76.00;;;;;;5062975;28;20048;-73
2021/11/12 12:18:48;;;;;;;9.90;5.00;;;33.40;75.80;;;;;;5062226;28;20047;-73
2021/11/12 12:22:11;;;;;;;9.85;5.07;;;33.00;73.80;;;;;;5061954;28;20040;-73
2021/11/12 13:24:36;;;;;;;9.00;6.15;;;28.70;77.70;;;;;;5059926;28;20051;-73
2021/11/12 13:27:41;;;;;;;10.23;5.80;;;28.70;77.20;;;;;;5060980;28;20036;-73
2021/11/12 13:30:55;;;;;;;15.20;6.90;;;28.60;78.80;;;;;;5062602;28;20051;-73
2021/11/12 13:34:02;;;;;;;19.85;8.13;;;26.00;81.90;;;;;;5057531;28;20044;-73
2021/11/12 13:37:18;;;;;;;13.02;6.85;;;25.70;84.90;;;;;;5055495;28;20049;-73
2021/11/12 13:40:28;;;;;;;13.50;7.30;;;26.20;84.50;;;;;;5057829;28;20478;-73
2021/11/12 13:43:34;;;;;;;11.35;7.63;;;24.90;86.50;;;;;;5060585;28;20494;-72
2021/11/12 13:46:59;;;;;;;11.23;8.00;;;23.70;87.90;;;;;;5061350;28;20040;-73
2021/11/12 13:50:04;;;;;;;16.50;6.93;;;24.00;90.20;;;;;;5057821;28;20055;-72
2021/11/12 13:53:09;;;;;;;14.43;7.18;;;24.90;88.80;;;;;;5057347;28;20048;-73
2021/11/12 13:56:14;;;;;;;14.70;7.50;;;25.40;87.10;;;;;;5055752;28;20051;-72
2021/11/12 13:59:18;;;;;;;12.35;7.22;;;24.10;89.30;;;;;;5056430;28;20071;-72
2021/11/12 14:02:22;;;;;;;14.63;8.27;;;22.80;90.80;;;;;;5063403;28;20494;-73
2021/11/12 14:05:27;;;;;;;15.88;7.97;;;22.50;92.00;;;;;;5059280;28;20048;-72
2021/11/12 14:08:42;;;;;;;30.50;16.38;;;22.80;91.90;;;;;;5055715;28;20123;-73
2021/11/12 14:12:04;;;;;;;37.08;21.65;;;23.20;91.50;;;;;;5057428;28;20503;-73
2021/11/12 14:15:55;;;;;;;12.85;7.50;;;23.50;91.30;;;;;;5060723;28;20048;-73
2021/11/12 14:21:54;;;;;;;62.63;31.02;;;23.50;91.30;;;;;;5058753;28;20214;-73
2021/11/12 14:29:05;;;;;;;34.83;16.90;;;23.20;92.00;;;;;;5058138;28;20048;-72
2021/11/12 14:38:48;;;;;;;36.63;17.63;;;22.50;93.30;;;;;;5065928;28;20051;-73
2021/11/12 14:42:34;;;;;;;34.38;15.95;;;22.30;93.30;;;;;;5062644;28;20379;-72
2021/11/12 14:45:38;;;;;;;36.35;15.30;;;22.00;93.80;;;;;;5064155;28;20044;-72
2021/11/12 14:49:06;;;;;;;16.08;9.73;;;21.50;94.60;;;;;;5062368;28;20111;-72
2021/11/12 14:52:23;;;;;;;48.00;18.70;;;21.10;95.20;;;;;;5064017;28;20071;-73
2021/11/12 14:55:27;;;;;;;38.55;15.07;;;20.70;96.40;;;;;;5061445;28;20036;-73
2021/11/12 14:58:34;;;;;;;19.75;10.38;;;20.50;96.80;;;;;;5063561;28;20071;-72
2021/11/12 15:01:39;;;;;;;29.88;11.82;;;20.40;97.00;;;;;;5067184;28;20380;-72
2021/11/12 15:04:45;;;;;;;45.72;14.57;;;20.90;97.00;;;;;;5056547;28;20048;-72
2021/11/12 15:07:56;;;;;;;110.95;33.28;;;21.60;96.20;;;;;;5062099;28;20044;-72
2021/11/12 15:11:03;;;;;;;25.88;12.00;;;22.20;95.60;;;;;;5063880;28;20066;-72
2021/11/12 15:14:09;;;;;;;32.47;16.77;;;21.60;95.60;;;;;;5060541;28;20047;-73
2021/11/12 15:17:13;;;;;;;64.45;26.25;;;21.00;96.50;;;;;;5059693;28;20044;-73
2021/11/12 15:20:18;;;;;;;44.40;18.70;;;20.60;96.90;;;;;;5061285;28;20032;-72
2021/11/12 15:30:05;;;;;;;32.83;16.88;;;19.50;99.40;;;;;;5059982;28;20052;-73
2021/11/12 15:33:12;;;;;;;33.22;14.32;;;18.80;99.90;;;;;;5063370;28;20055;-72
2021/11/12 15:36:17;;;;;;;21.65;12.38;;;18.50;99.90;;;;;;5065735;28;20036;-72
2021/11/12 15:39:31;;;;;;;35.17;18.75;;;18.20;99.90;;;;;;5060682;28;20044;-72
2021/11/12 15:48:51;;;;;;;42.92;24.35;;;17.50;99.90;;;;;;5062203;28;20399;-72
2021/11/12 15:52:01;;;;;;;30.45;17.05;;;17.30;99.90;;;;;;5061844;28;20040;-72
2021/11/12 16:08:04;;;;;;;29.45;14.02;;;16.40;99.90;;;;;;5060910;28;20111;-72
2021/11/12 16:27:34;;;;;;;80.00;40.80;;;15.80;99.90;;;;;;5063127;28;20304;-72
2021/11/12 16:30:39;;;;;;;78.07;38.13;;;15.70;99.90;;;;;;5066139;28;20047;-72
2021/11/12 16:33:43;;;;;;;57.78;30.35;;;15.60;99.90;;;;;;5067684;28;20418;-72
2021/11/12 16:37:00;;;;;;;36.20;19.90;;;15.50;99.90;;;;;;5056825;28;20043;-72
2021/11/12 16:57:19;;;;;;;14.60;8.40;;;15.50;99.90;;;;;;5060464;28;19912;-72
2021/11/12 17:46:35;;;;;;;28.13;14.90;;;14.90;99.90;;;;;;5062759;28;20379;-72
2021/11/12 18:06:29;;;;;;;28.88;16.48;;;14.50;99.90;;;;;;5057805;28;20067;-72
2021/11/12 18:23:08;;;;;;;21.45;11.75;;;14.60;99.90;;;;;;5063729;28;20044;-72
2021/11/12 21:44:20;;;;;;;47.72;25.45;;;12.50;99.90;;;;;;5067244;28;20493;-72
2021/11/12 21:47:17;;;;;;;49.35;25.00;;;12.40;99.90;;;;;;5052405;28;20407;-72
2021/11/12 21:50:23;;;;;;;38.50;22.55;;;12.40;99.90;;;;;;5058311;28;20056;-72
2021/11/12 21:53:28;;;;;;;39.83;22.48;;;12.50;99.90;;;;;;5058081;28;20040;-72
2021/11/12 21:56:38;;;;;;;34.88;21.05;;;12.50;99.90;;;;;;5058374;28;20040;-72
2021/11/12 21:59:45;;;;;;;40.22;23.30;;;12.60;99.90;;;;;;5057609;28;20404;-72
2021/11/12 22:02:54;;;;;;;40.67;21.33;;;12.60;99.90;;;;;;5066138;28;20048;-72
2021/11/12 22:06:05;;;;;;;41.17;20.35;;;12.70;99.90;;;;;;5063958;28;20032;-72
2021/11/12 22:09:11;;;;;;;40.47;20.02;;;12.80;99.90;;;;;;5055346;28;20050;-72
2021/11/12 22:12:16;;;;;;;37.85;23.05;;;12.80;99.90;;;;;;5056315;28;20048;-72
2021/11/12 22:15:28;;;;;;;35.28;21.52;;;12.80;99.90;;;;;;5061493;28;20036;-72
2021/11/12 22:18:33;;;;;;;35.60;21.52;;;12.80;99.90;;;;;;5062248;28;20043;-72
2021/11/12 22:21:38;;;;;;;34.08;20.98;;;12.70;99.90;;;;;;5058077;28;20099;-72
2021/11/12 22:24:43;;;;;;;38.00;19.58;;;12.70;99.90;;;;;;5058660;28;20052;-72
2021/11/12 22:27:49;;;;;;;33.22;17.88;;;12.80;99.90;;;;;;5066480;28;20043;-72
2021/11/12 22:30:55;;;;;;;32.20;17.90;;;12.80;99.90;;;;;;5065517;28;20063;-72
2021/11/12 22:34:00;;;;;;;27.38;15.68;;;12.80;99.90;;;;;;5060317;28;20411;-72
2021/11/12 22:37:07;;;;;;;30.05;16.60;;;12.80;99.90;;;;;;5061055;28;20043;-72
2021/11/12 22:40:14;;;;;;;24.30;13.90;;;12.90;99.90;;;;;;5066091;28;20063;-72
2021/11/12 22:43:23;;;;;;;19.83;12.55;;;12.90;99.90;;;;;;5062582;28;20036;-72
2021/11/12 22:46:29;;;;;;;24.40;12.77;;;13.00;99.90;;;;;;5057584;28;20020;-72
2021/11/12 22:49:36;;;;;;;21.25;13.77;;;13.00;99.90;;;;;;5058337;28;20044;-72
2021/11/12 22:52:42;;;;;;;23.33;13.85;;;13.00;99.90;;;;;;5059478;28;20043;-72
2021/11/12 22:55:49;;;;;;;23.50;14.27;;;13.00;99.90;;;;;;5060720;28;20044;-72
2021/11/12 22:58:54;;;;;;;39.58;19.73;;;13.10;99.90;;;;;;5056340;28;20387;-72
2021/11/12 23:01:59;;;;;;;25.20;15.30;;;13.00;99.90;;;;;;5068185;28;20044;-72
2021/11/12 23:05:04;;;;;;;35.53;18.73;;;12.90;99.90;;;;;;5064786;28;20032;-72
2021/11/12 23:08:08;;;;;;;38.15;21.05;;;12.70;99.90;;;;;;5070324;28;20051;-72
2021/11/12 23:11:13;;;;;;;41.75;21.15;;;12.20;99.90;;;;;;5058782;28;20035;-72
2021/11/12 23:14:17;;;;;;;36.55;21.10;;;12.00;99.90;;;;;;5058107;28;20083;-72
2021/11/12 23:17:22;;;;;;;44.63;23.63;;;12.10;99.90;;;;;;5066936;28;20039;-72
2021/11/12 23:20:28;;;;;;;41.42;21.13;;;12.00;99.90;;;;;;5066943;28;20032;-72
2021/11/12 23:23:35;;;;;;;47.28;23.52;;;12.00;99.90;;;;;;5056868;28;20531;-72
2021/11/12 23:26:40;;;;;;;39.88;22.52;;;12.00;99.90;;;;;;5068443;28;20047;-72
2021/11/12 23:29:44;;;;;;;40.80;23.67;;;12.00;99.90;;;;;;5065362;28;20059;-72
2021/11/12 23:32:51;;;;;;;39.78;22.80;;;12.00;99.90;;;;;;5069071;28;20387;-72
2021/11/12 23:35:59;;;;;;;43.20;23.65;;;12.10;99.90;;;;;;5065566;28;20051;-72
2021/11/12 23:39:03;;;;;;;50.33;25.77;;;12.10;99.90;;;;;;5062309;28;20047;-72
2021/11/12 23:42:08;;;;;;;48.35;26.48;;;12.20;99.90;;;;;;5066230;28;20040;-72
2021/11/12 23:45:12;;;;;;;44.58;24.08;;;12.20;99.90;;;;;;5060200;28;20056;-72
2021/11/12 23:48:17;;;;;;;53.38;28.90;;;12.30;99.90;;;;;;5059827;28;20047;-72
2021/11/12 23:51:23;;;;;;;60.10;34.30;;;12.30;99.90;;;;;;5060793;28;20048;-72
2021/11/12 23:54:28;;;;;;;58.03;33.20;;;12.30;99.90;;;;;;5058315;28;20396;-72
2021/11/12 23:57:33;;;;;;;43.40;24.70;;;12.30;99.90;;;;;;5059006;28;20047;-72
